sensor_id;sensor_type;location;lat;lon;timestamp;P1;durP1;ratioP1;P2;durP2;ratioP2
16330;SDS011;8275;48.206;16.340;2022-08-19T00:01:56;3.88;;;2.17;;
16330;SDS011;8275;48.206;16.340;2022-08-19T00:04:28;2.42;;;2.22;;
16330;SDS011;8275;48.206;16.340;2022-08-19T00:07:01;6.13;;;3.03;;
16330;SDS011;8275;48.206;16.340;2022-08-19T00:09:31;4.07;;;2.38;;
16330;SDS011;8275;48.206;16.340;2022-08-19T00:11:59;3.50;;;2.25;;
16330;SDS011;8275;48.206;16.340;2022-08-19T00:14:29;2.85;;;2.30;;
16330;SDS011;8275;48.206;16.340;2022-08-19T00:16:58;5.00;;;3.38;;
16330;SDS011;8275;48.206;16.340;2022-08-19T00:19:28;2.53;;;2.33;;
16330;SDS011;8275;48.206;16.340;2022-08-19T00:21:57;2.67;;;2.15;;
16330;SDS011;8275;48.206;16.340;2022-08-19T00:24:26;3.65;;;2.28;;
16330;SDS011;8275;48.206;16.340;2022-08-19T00:26:55;3.08;;;2.33;;
16330;SDS011;8275;48.206;16.340;2022-08-19T00:29:43;2.95;;;2.30;;
16330;SDS011;8275;48.206;16.340;2022-08-19T00:32:17;2.97;;;2.63;;
16330;SDS011;8275;48.206;16.340;2022-08-19T00:34:47;7.20;;;2.47;;
16330;SDS011;8275;48.206;16.340;2022-08-19T00:37:18;4.03;;;2.10;;
16330;SDS011;8275;48.206;16.340;2022-08-19T00:39:49;6.63;;;3.47;;
16330;SDS011;8275;48.206;16.340;2022-08-19T00:42:19;3.15;;;2.05;;
16330;SDS011;8275;48.206;16.340;2022-08-19T00:44:50;2.70;;;1.75;;
16330;SDS011;8275;48.206;16.340;2022-08-19T00:47:18;8.93;;;3.67;;
16330;SDS011;8275;48.206;16.340;2022-08-19T00:49:50;6.47;;;2.17;;
16330;SDS011;8275;48.206;16.340;2022-08-19T00:52:23;3.80;;;2.28;;
16330;SDS011;8275;48.206;16.340;2022-08-19T00:54:56;2.63;;;1.90;;
16330;SDS011;8275;48.206;16.340;2022-08-19T00:57:26;5.43;;;1.90;;
16330;SDS011;8275;48.206;16.340;2022-08-19T01:00:00;3.45;;;3.15;;
16330;SDS011;8275;48.206;16.340;2022-08-19T01:02:32;5.20;;;2.90;;
16330;SDS011;8275;48.206;16.340;2022-08-19T01:05:03;3.95;;;3.08;;
16330;SDS011;8275;48.206;16.340;2022-08-19T01:07:37;2.67;;;2.22;;
16330;SDS011;8275;48.206;16.340;2022-08-19T01:10:08;4.50;;;3.35;;
16330;SDS011;8275;48.206;16.340;2022-08-19T01:12:40;3.35;;;2.42;;
16330;SDS011;8275;48.206;16.340;2022-08-19T01:15:10;5.30;;;2.72;;
16330;SDS011;8275;48.206;16.340;2022-08-19T01:17:42;3.70;;;2.38;;
16330;SDS011;8275;48.206;16.340;2022-08-19T01:20:17;2.28;;;1.98;;
16330;SDS011;8275;48.206;16.340;2022-08-19T01:22:53;2.05;;;1.88;;
16330;SDS011;8275;48.206;16.340;2022-08-19T01:25:26;2.40;;;2.15;;
16330;SDS011;8275;48.206;16.340;2022-08-19T01:28:04;4.32;;;3.53;;
16330;SDS011;8275;48.206;16.340;2022-08-19T01:30:36;6.40;;;2.90;;
16330;SDS011;8275;48.206;16.340;2022-08-19T01:33:09;3.30;;;2.00;;
16330;SDS011;8275;48.206;16.340;2022-08-19T01:35:38;2.70;;;2.47;;
16330;SDS011;8275;48.206;16.340;2022-08-19T01:38:19;4.32;;;2.70;;
16330;SDS011;8275;48.206;16.340;2022-08-19T01:40:52;4.95;;;2.22;;
16330;SDS011;8275;48.206;16.340;2022-08-19T01:43:21;3.20;;;2.15;;
16330;SDS011;8275;48.206;16.340;2022-08-19T01:45:49;5.65;;;2.42;;
16330;SDS011;8275;48.206;16.340;2022-08-19T01:48:18;3.72;;;2.85;;
16330;SDS011;8275;48.206;16.340;2022-08-19T01:50:48;5.72;;;2.10;;
16330;SDS011;8275;48.206;16.340;2022-08-19T01:53:18;3.65;;;2.05;;
16330;SDS011;8275;48.206;16.340;2022-08-19T01:55:48;6.05;;;2.83;;
16330;SDS011;8275;48.206;16.340;2022-08-19T01:58:18;4.13;;;2.25;;
16330;SDS011;8275;48.206;16.340;2022-08-19T02:00:51;2.75;;;2.20;;
16330;SDS011;8275;48.206;16.340;2022-08-19T02:03:20;2.78;;;2.58;;
16330;SDS011;8275;48.206;16.340;2022-08-19T02:05:53;2.72;;;2.13;;
16330;SDS011;8275;48.206;16.340;2022-08-19T02:08:25;2.35;;;2.15;;
16330;SDS011;8275;48.206;16.340;2022-08-19T02:10:55;3.45;;;2.60;;
16330;SDS011;8275;48.206;16.340;2022-08-19T02:13:24;4.10;;;2.75;;
16330;SDS011;8275;48.206;16.340;2022-08-19T02:15:55;2.70;;;2.50;;
16330;SDS011;8275;48.206;16.340;2022-08-19T02:18:25;2.88;;;2.50;;
16330;SDS011;8275;48.206;16.340;2022-08-19T02:20:54;5.03;;;2.95;;
16330;SDS011;8275;48.206;16.340;2022-08-19T02:23:22;3.40;;;3.08;;
16330;SDS011;8275;48.206;16.340;2022-08-19T02:25:52;4.03;;;3.13;;
16330;SDS011;8275;48.206;16.340;2022-08-19T02:28:20;3.95;;;2.90;;
16330;SDS011;8275;48.206;16.340;2022-08-19T02:30:49;2.78;;;2.58;;
16330;SDS011;8275;48.206;16.340;2022-08-19T02:33:18;5.05;;;3.25;;
16330;SDS011;8275;48.206;16.340;2022-08-19T02:35:46;3.10;;;2.47;;
16330;SDS011;8275;48.206;16.340;2022-08-19T02:38:15;10.27;;;2.92;;
16330;SDS011;8275;48.206;16.340;2022-08-19T02:40:54;3.35;;;3.05;;
16330;SDS011;8275;48.206;16.340;2022-08-19T02:43:25;4.28;;;2.63;;
16330;SDS011;8275;48.206;16.340;2022-08-19T02:45:59;4.05;;;2.47;;
16330;SDS011;8275;48.206;16.340;2022-08-19T02:48:29;2.63;;;2.35;;
16330;SDS011;8275;48.206;16.340;2022-08-19T02:50:59;3.75;;;3.08;;
16330;SDS011;8275;48.206;16.340;2022-08-19T02:53:28;3.47;;;2.58;;
16330;SDS011;8275;48.206;16.340;2022-08-19T02:55:58;2.35;;;2.08;;
16330;SDS011;8275;48.206;16.340;2022-08-19T02:58:26;4.88;;;3.20;;
16330;SDS011;8275;48.206;16.340;2022-08-19T03:00:55;4.00;;;3.58;;
16330;SDS011;8275;48.206;16.340;2022-08-19T03:03:24;4.05;;;3.05;;
16330;SDS011;8275;48.206;16.340;2022-08-19T03:06:02;2.70;;;2.47;;
16330;SDS011;8275;48.206;16.340;2022-08-19T03:08:33;8.23;;;2.97;;
16330;SDS011;8275;48.206;16.340;2022-08-19T03:11:04;3.05;;;2.75;;
16330;SDS011;8275;48.206;16.340;2022-08-19T03:13:33;5.13;;;2.97;;
16330;SDS011;8275;48.206;16.340;2022-08-19T03:16:03;4.25;;;2.95;;
16330;SDS011;8275;48.206;16.340;2022-08-19T03:18:32;2.90;;;2.70;;
16330;SDS011;8275;48.206;16.340;2022-08-19T03:21:01;3.65;;;3.35;;
16330;SDS011;8275;48.206;16.340;2022-08-19T03:23:30;3.13;;;2.92;;
16330;SDS011;8275;48.206;16.340;2022-08-19T03:26:02;3.53;;;2.35;;
16330;SDS011;8275;48.206;16.340;2022-08-19T03:28:42;2.38;;;2.17;;
16330;SDS011;8275;48.206;16.340;2022-08-19T03:31:24;2.95;;;2.65;;
16330;SDS011;8275;48.206;16.340;2022-08-19T03:34:15;5.28;;;2.45;;
16330;SDS011;8275;48.206;16.340;2022-08-19T03:36:47;3.75;;;2.80;;
16330;SDS011;8275;48.206;16.340;2022-08-19T03:39:16;3.47;;;3.28;;
16330;SDS011;8275;48.206;16.340;2022-08-19T03:41:46;4.18;;;3.03;;
16330;SDS011;8275;48.206;16.340;2022-08-19T03:44:37;4.50;;;3.25;;
16330;SDS011;8275;48.206;16.340;2022-08-19T03:47:05;4.85;;;2.63;;
16330;SDS011;8275;48.206;16.340;2022-08-19T03:49:34;2.50;;;2.10;;
16330;SDS011;8275;48.206;16.340;2022-08-19T03:52:03;2.22;;;2.05;;
16330;SDS011;8275;48.206;16.340;2022-08-19T03:54:34;2.65;;;2.28;;
16330;SDS011;8275;48.206;16.340;2022-08-19T03:57:05;2.92;;;2.72;;
16330;SDS011;8275;48.206;16.340;2022-08-19T03:59:36;3.70;;;2.40;;
16330;SDS011;8275;48.206;16.340;2022-08-19T04:02:07;4.47;;;1.95;;
16330;SDS011;8275;48.206;16.340;2022-08-19T04:04:39;4.90;;;2.95;;
16330;SDS011;8275;48.206;16.340;2022-08-19T04:07:11;2.63;;;2.42;;
16330;SDS011;8275;48.206;16.340;2022-08-19T04:09:42;6.80;;;2.70;;
16330;SDS011;8275;48.206;16.340;2022-08-19T04:12:12;3.70;;;3.03;;
16330;SDS011;8275;48.206;16.340;2022-08-19T04:14:42;4.53;;;3.55;;
16330;SDS011;8275;48.206;16.340;2022-08-19T04:17:10;3.03;;;2.65;;
16330;SDS011;8275;48.206;16.340;2022-08-19T04:19:39;3.60;;;3.25;;
16330;SDS011;8275;48.206;16.340;2022-08-19T04:22:09;7.32;;;3.00;;
16330;SDS011;8275;48.206;16.340;2022-08-19T04:24:38;3.35;;;2.40;;
16330;SDS011;8275;48.206;16.340;2022-08-19T04:27:07;7.97;;;3.03;;
16330;SDS011;8275;48.206;16.340;2022-08-19T04:29:37;8.70;;;2.88;;
16330;SDS011;8275;48.206;16.340;2022-08-19T04:32:06;5.13;;;2.60;;
16330;SDS011;8275;48.206;16.340;2022-08-19T04:34:35;3.20;;;2.83;;
16330;SDS011;8275;48.206;16.340;2022-08-19T04:37:25;3.22;;;2.50;;
16330;SDS011;8275;48.206;16.340;2022-08-19T04:40:01;3.83;;;2.97;;
16330;SDS011;8275;48.206;16.340;2022-08-19T04:42:50;3.90;;;2.53;;
16330;SDS011;8275;48.206;16.340;2022-08-19T04:45:21;3.00;;;2.80;;
16330;SDS011;8275;48.206;16.340;2022-08-19T04:47:54;2.92;;;2.03;;
16330;SDS011;8275;48.206;16.340;2022-08-19T04:50:43;7.35;;;2.85;;
16330;SDS011;8275;48.206;16.340;2022-08-19T04:53:12;3.55;;;2.25;;
16330;SDS011;8275;48.206;16.340;2022-08-19T04:55:40;5.18;;;3.22;;
16330;SDS011;8275;48.206;16.340;2022-08-19T04:58:10;3.15;;;1.80;;
16330;SDS011;8275;48.206;16.340;2022-08-19T05:00:39;5.47;;;3.28;;
16330;SDS011;8275;48.206;16.340;2022-08-19T05:03:08;3.20;;;2.95;;
16330;SDS011;8275;48.206;16.340;2022-08-19T05:05:40;4.40;;;3.45;;
16330;SDS011;8275;48.206;16.340;2022-08-19T05:08:11;7.15;;;2.88;;
16330;SDS011;8275;48.206;16.340;2022-08-19T05:10:41;3.53;;;2.63;;
16330;SDS011;8275;48.206;16.340;2022-08-19T05:13:10;3.05;;;2.67;;
16330;SDS011;8275;48.206;16.340;2022-08-19T05:15:40;4.38;;;3.97;;
16330;SDS011;8275;48.206;16.340;2022-08-19T05:18:24;4.63;;;4.03;;
16330;SDS011;8275;48.206;16.340;2022-08-19T05:21:12;11.35;;;5.07;;
16330;SDS011;8275;48.206;16.340;2022-08-19T05:24:01;5.15;;;4.65;;
16330;SDS011;8275;48.206;16.340;2022-08-19T05:26:32;5.38;;;4.88;;
16330;SDS011;8275;48.206;16.340;2022-08-19T05:29:01;5.03;;;4.63;;
16330;SDS011;8275;48.206;16.340;2022-08-19T05:31:32;5.32;;;4.82;;
16330;SDS011;8275;48.206;16.340;2022-08-19T05:34:07;5.93;;;4.75;;
16330;SDS011;8275;48.206;16.340;2022-08-19T05:36:45;5.47;;;5.05;;
16330;SDS011;8275;48.206;16.340;2022-08-19T05:39:15;4.10;;;3.80;;
16330;SDS011;8275;48.206;16.340;2022-08-19T05:41:47;4.97;;;4.47;;
16330;SDS011;8275;48.206;16.340;2022-08-19T05:44:19;5.68;;;5.05;;
16330;SDS011;8275;48.206;16.340;2022-08-19T05:46:51;5.55;;;5.10;;
16330;SDS011;8275;48.206;16.340;2022-08-19T05:49:21;8.07;;;4.80;;
16330;SDS011;8275;48.206;16.340;2022-08-19T05:51:51;5.22;;;4.72;;
16330;SDS011;8275;48.206;16.340;2022-08-19T05:54:21;7.20;;;6.07;;
16330;SDS011;8275;48.206;16.340;2022-08-19T05:56:51;6.10;;;5.43;;
16330;SDS011;8275;48.206;16.340;2022-08-19T05:59:20;7.28;;;5.43;;
16330;SDS011;8275;48.206;16.340;2022-08-19T06:01:52;5.25;;;4.28;;
16330;SDS011;8275;48.206;16.340;2022-08-19T06:04:22;6.35;;;5.38;;
16330;SDS011;8275;48.206;16.340;2022-08-19T06:06:52;22.63;;;5.75;;
16330;SDS011;8275;48.206;16.340;2022-08-19T06:09:21;8.32;;;4.68;;
16330;SDS011;8275;48.206;16.340;2022-08-19T06:11:52;5.20;;;4.80;;
16330;SDS011;8275;48.206;16.340;2022-08-19T06:14:27;3.95;;;3.65;;
16330;SDS011;8275;48.206;16.340;2022-08-19T06:17:00;7.43;;;4.95;;
16330;SDS011;8275;48.206;16.340;2022-08-19T06:19:32;4.22;;;3.85;;
16330;SDS011;8275;48.206;16.340;2022-08-19T06:22:06;7.45;;;5.55;;
16330;SDS011;8275;48.206;16.340;2022-08-19T06:24:36;5.25;;;4.75;;
16330;SDS011;8275;48.206;16.340;2022-08-19T06:27:04;5.00;;;4.50;;
16330;SDS011;8275;48.206;16.340;2022-08-19T06:29:33;9.30;;;6.03;;
16330;SDS011;8275;48.206;16.340;2022-08-19T06:32:03;7.03;;;5.38;;
16330;SDS011;8275;48.206;16.340;2022-08-19T06:34:33;4.95;;;4.53;;
16330;SDS011;8275;48.206;16.340;2022-08-19T06:37:02;5.13;;;4.63;;
16330;SDS011;8275;48.206;16.340;2022-08-19T06:39:32;6.25;;;4.13;;
16330;SDS011;8275;48.206;16.340;2022-08-19T06:42:04;5.53;;;4.75;;
16330;SDS011;8275;48.206;16.340;2022-08-19T06:44:37;4.10;;;3.80;;
16330;SDS011;8275;48.206;16.340;2022-08-19T06:47:10;4.28;;;3.88;;
16330;SDS011;8275;48.206;16.340;2022-08-19T06:49:54;4.28;;;3.67;;
16330;SDS011;8275;48.206;16.340;2022-08-19T06:52:28;4.85;;;4.38;;
16330;SDS011;8275;48.206;16.340;2022-08-19T06:54:59;3.85;;;3.50;;
16330;SDS011;8275;48.206;16.340;2022-08-19T06:57:31;4.82;;;4.43;;
16330;SDS011;8275;48.206;16.340;2022-08-19T07:00:01;4.25;;;3.88;;
16330;SDS011;8275;48.206;16.340;2022-08-19T07:02:39;5.38;;;4.90;;
16330;SDS011;8275;48.206;16.340;2022-08-19T07:05:18;5.55;;;4.10;;
16330;SDS011;8275;48.206;16.340;2022-08-19T07:07:47;5.35;;;4.80;;
16330;SDS011;8275;48.206;16.340;2022-08-19T07:10:16;4.30;;;3.85;;
16330;SDS011;8275;48.206;16.340;2022-08-19T07:12:45;4.22;;;3.83;;
16330;SDS011;8275;48.206;16.340;2022-08-19T07:15:16;3.92;;;3.63;;
16330;SDS011;8275;48.206;16.340;2022-08-19T07:17:48;4.32;;;4.00;;
16330;SDS011;8275;48.206;16.340;2022-08-19T07:20:18;3.50;;;3.30;;
16330;SDS011;8275;48.206;16.340;2022-08-19T07:22:53;3.75;;;3.42;;
16330;SDS011;8275;48.206;16.340;2022-08-19T07:25:23;4.32;;;3.65;;
16330;SDS011;8275;48.206;16.340;2022-08-19T07:27:58;4.43;;;4.05;;
16330;SDS011;8275;48.206;16.340;2022-08-19T07:30:27;3.60;;;3.25;;
16330;SDS011;8275;48.206;16.340;2022-08-19T07:32:58;7.65;;;4.70;;
16330;SDS011;8275;48.206;16.340;2022-08-19T07:35:29;4.25;;;3.85;;
16330;SDS011;8275;48.206;16.340;2022-08-19T07:37:58;4.50;;;3.55;;
16330;SDS011;8275;48.206;16.340;2022-08-19T07:40:30;3.67;;;3.38;;
16330;SDS011;8275;48.206;16.340;2022-08-19T07:42:59;4.38;;;3.47;;
16330;SDS011;8275;48.206;16.340;2022-08-19T07:45:27;4.43;;;3.50;;
16330;SDS011;8275;48.206;16.340;2022-08-19T07:47:59;4.15;;;3.75;;
16330;SDS011;8275;48.206;16.340;2022-08-19T07:50:29;5.03;;;4.22;;
16330;SDS011;8275;48.206;16.340;2022-08-19T07:52:57;4.03;;;3.63;;
16330;SDS011;8275;48.206;16.340;2022-08-19T07:55:26;3.55;;;3.25;;
16330;SDS011;8275;48.206;16.340;2022-08-19T07:58:08;3.58;;;3.28;;
16330;SDS011;8275;48.206;16.340;2022-08-19T08:00:38;5.75;;;3.95;;
16330;SDS011;8275;48.206;16.340;2022-08-19T08:03:09;4.15;;;3.75;;
16330;SDS011;8275;48.206;16.340;2022-08-19T08:05:39;2.90;;;2.67;;
16330;SDS011;8275;48.206;16.340;2022-08-19T08:08:25;12.70;;;3.65;;
16330;SDS011;8275;48.206;16.340;2022-08-19T08:11:14;3.47;;;3.15;;
16330;SDS011;8275;48.206;16.340;2022-08-19T08:13:46;4.82;;;3.80;;
16330;SDS011;8275;48.206;16.340;2022-08-19T08:16:29;4.35;;;3.22;;
16330;SDS011;8275;48.206;16.340;2022-08-19T08:19:14;3.83;;;3.42;;
16330;SDS011;8275;48.206;16.340;2022-08-19T08:21:51;4.25;;;2.80;;
16330;SDS011;8275;48.206;16.340;2022-08-19T08:24:21;3.15;;;2.92;;
16330;SDS011;8275;48.206;16.340;2022-08-19T08:26:54;4.15;;;3.78;;
16330;SDS011;8275;48.206;16.340;2022-08-19T08:29:24;3.42;;;3.15;;
16330;SDS011;8275;48.206;16.340;2022-08-19T08:32:00;5.28;;;3.47;;
16330;SDS011;8275;48.206;16.340;2022-08-19T08:34:40;4.93;;;3.92;;
16330;SDS011;8275;48.206;16.340;2022-08-19T08:37:09;3.63;;;3.08;;
16330;SDS011;8275;48.206;16.340;2022-08-19T08:39:41;3.03;;;2.75;;
16330;SDS011;8275;48.206;16.340;2022-08-19T08:42:12;4.03;;;3.75;;
16330;SDS011;8275;48.206;16.340;2022-08-19T08:44:49;3.33;;;3.13;;
16330;SDS011;8275;48.206;16.340;2022-08-19T08:47:26;3.55;;;2.67;;
16330;SDS011;8275;48.206;16.340;2022-08-19T08:50:10;3.10;;;2.85;;
16330;SDS011;8275;48.206;16.340;2022-08-19T08:52:47;5.22;;;3.80;;
16330;SDS011;8275;48.206;16.340;2022-08-19T08:59:30;2.88;;;2.67;;
16330;SDS011;8275;48.206;16.340;2022-08-19T09:02:02;3.60;;;3.35;;
16330;SDS011;8275;48.206;16.340;2022-08-19T09:04:31;3.80;;;3.53;;
16330;SDS011;8275;48.206;16.340;2022-08-19T09:07:07;4.22;;;3.20;;
16330;SDS011;8275;48.206;16.340;2022-08-19T09:10:04;2.83;;;2.63;;
16330;SDS011;8275;48.206;16.340;2022-08-19T09:12:45;4.03;;;2.90;;
16330;SDS011;8275;48.206;16.340;2022-08-19T09:15:36;3.45;;;3.22;;
16330;SDS011;8275;48.206;16.340;2022-08-19T09:18:12;4.05;;;3.75;;
16330;SDS011;8275;48.206;16.340;2022-08-19T09:20:44;4.07;;;3.70;;
16330;SDS011;8275;48.206;16.340;2022-08-19T09:23:15;3.90;;;2.83;;
16330;SDS011;8275;48.206;16.340;2022-08-19T09:25:52;3.15;;;2.95;;
16330;SDS011;8275;48.206;16.340;2022-08-19T09:28:21;3.13;;;2.70;;
16330;SDS011;8275;48.206;16.340;2022-08-19T09:30:52;3.45;;;3.20;;
16330;SDS011;8275;48.206;16.340;2022-08-19T09:33:21;7.82;;;4.28;;
16330;SDS011;8275;48.206;16.340;2022-08-19T09:35:49;3.63;;;3.15;;
16330;SDS011;8275;48.206;16.340;2022-08-19T09:38:35;7.07;;;3.17;;
16330;SDS011;8275;48.206;16.340;2022-08-19T09:41:10;4.15;;;3.78;;
16330;SDS011;8275;48.206;16.340;2022-08-19T09:43:41;4.25;;;3.30;;
16330;SDS011;8275;48.206;16.340;2022-08-19T09:46:13;7.00;;;3.70;;
16330;SDS011;8275;48.206;16.340;2022-08-19T09:48:44;4.55;;;3.80;;
16330;SDS011;8275;48.206;16.340;2022-08-19T09:51:15;5.15;;;4.72;;
16330;SDS011;8275;48.206;16.340;2022-08-19T09:53:49;7.13;;;3.60;;
16330;SDS011;8275;48.206;16.340;2022-08-19T09:56:21;3.00;;;2.78;;
16330;SDS011;8275;48.206;16.340;2022-08-19T09:58:50;5.43;;;3.70;;
16330;SDS011;8275;48.206;16.340;2022-08-19T10:01:20;3.42;;;3.13;;
16330;SDS011;8275;48.206;16.340;2022-08-19T10:03:52;8.23;;;3.70;;
16330;SDS011;8275;48.206;16.340;2022-08-19T10:06:23;4.82;;;3.88;;
16330;SDS011;8275;48.206;16.340;2022-08-19T10:09:13;3.47;;;3.17;;
16330;SDS011;8275;48.206;16.340;2022-08-19T10:11:59;3.90;;;3.60;;
16330;SDS011;8275;48.206;16.340;2022-08-19T10:14:28;2.90;;;2.70;;
16330;SDS011;8275;48.206;16.340;2022-08-19T10:16:57;3.33;;;3.08;;
16330;SDS011;8275;48.206;16.340;2022-08-19T10:19:43;4.47;;;4.07;;
16330;SDS011;8275;48.206;16.340;2022-08-19T10:22:21;3.85;;;3.25;;
16330;SDS011;8275;48.206;16.340;2022-08-19T10:24:53;3.50;;;3.10;;
16330;SDS011;8275;48.206;16.340;2022-08-19T10:27:21;5.68;;;3.75;;
16330;SDS011;8275;48.206;16.340;2022-08-19T10:29:51;3.72;;;3.10;;
16330;SDS011;8275;48.206;16.340;2022-08-19T10:32:20;3.10;;;2.83;;
16330;SDS011;8275;48.206;16.340;2022-08-19T10:34:59;6.57;;;3.53;;
16330;SDS011;8275;48.206;16.340;2022-08-19T10:37:31;5.05;;;3.83;;
16330;SDS011;8275;48.206;16.340;2022-08-19T10:40:02;3.90;;;3.53;;
16330;SDS011;8275;48.206;16.340;2022-08-19T10:42:33;4.28;;;3.92;;
16330;SDS011;8275;48.206;16.340;2022-08-19T10:45:02;4.28;;;3.65;;
16330;SDS011;8275;48.206;16.340;2022-08-19T10:47:33;4.43;;;3.78;;
16330;SDS011;8275;48.206;16.340;2022-08-19T10:50:02;4.95;;;3.83;;
16330;SDS011;8275;48.206;16.340;2022-08-19T10:52:55;5.97;;;4.05;;
16330;SDS011;8275;48.206;16.340;2022-08-19T10:55:25;3.17;;;2.95;;
16330;SDS011;8275;48.206;16.340;2022-08-19T10:58:11;3.58;;;3.10;;
16330;SDS011;8275;48.206;16.340;2022-08-19T11:00:41;3.72;;;3.42;;
16330;SDS011;8275;48.206;16.340;2022-08-19T11:03:18;4.75;;;3.92;;
16330;SDS011;8275;48.206;16.340;2022-08-19T11:05:46;4.32;;;4.03;;
16330;SDS011;8275;48.206;16.340;2022-08-19T11:08:27;6.90;;;3.45;;
16330;SDS011;8275;48.206;16.340;2022-08-19T11:10:59;4.47;;;3.92;;
16330;SDS011;8275;48.206;16.340;2022-08-19T11:13:29;4.15;;;3.53;;
16330;SDS011;8275;48.206;16.340;2022-08-19T11:16:03;4.78;;;3.55;;
16330;SDS011;8275;48.206;16.340;2022-08-19T11:18:35;13.55;;;3.35;;
16330;SDS011;8275;48.206;16.340;2022-08-19T11:21:07;7.97;;;3.83;;
16330;SDS011;8275;48.206;16.340;2022-08-19T11:23:40;7.60;;;4.10;;
16330;SDS011;8275;48.206;16.340;2022-08-19T11:26:11;3.55;;;3.10;;
16330;SDS011;8275;48.206;16.340;2022-08-19T11:28:40;5.25;;;3.67;;
16330;SDS011;8275;48.206;16.340;2022-08-19T11:31:09;7.15;;;3.60;;
16330;SDS011;8275;48.206;16.340;2022-08-19T11:33:39;4.90;;;3.67;;
16330;SDS011;8275;48.206;16.340;2022-08-19T11:36:13;4.22;;;3.20;;
16330;SDS011;8275;48.206;16.340;2022-08-19T11:38:42;3.72;;;2.95;;
16330;SDS011;8275;48.206;16.340;2022-08-19T11:41:14;11.32;;;3.85;;
16330;SDS011;8275;48.206;16.340;2022-08-19T11:43:45;10.20;;;3.65;;
16330;SDS011;8275;48.206;16.340;2022-08-19T11:46:15;4.53;;;3.28;;
16330;SDS011;8275;48.206;16.340;2022-08-19T11:48:44;4.93;;;3.00;;
16330;SDS011;8275;48.206;16.340;2022-08-19T11:51:15;8.25;;;3.25;;
16330;SDS011;8275;48.206;16.340;2022-08-19T11:53:46;5.75;;;2.95;;
16330;SDS011;8275;48.206;16.340;2022-08-19T11:56:17;3.53;;;2.67;;
16330;SDS011;8275;48.206;16.340;2022-08-19T11:58:46;12.32;;;3.78;;
16330;SDS011;8275;48.206;16.340;2022-08-19T12:01:16;4.20;;;2.75;;
16330;SDS011;8275;48.206;16.340;2022-08-19T12:03:47;7.80;;;4.32;;
16330;SDS011;8275;48.206;16.340;2022-08-19T12:06:19;14.55;;;5.07;;
16330;SDS011;8275;48.206;16.340;2022-08-19T12:08:54;9.52;;;3.85;;
16330;SDS011;8275;48.206;16.340;2022-08-19T12:11:27;5.00;;;3.35;;
16330;SDS011;8275;48.206;16.340;2022-08-19T12:14:00;4.13;;;3.08;;
16330;SDS011;8275;48.206;16.340;2022-08-19T12:16:29;5.00;;;3.38;;
16330;SDS011;8275;48.206;16.340;2022-08-19T12:18:59;4.53;;;2.80;;
16330;SDS011;8275;48.206;16.340;2022-08-19T12:21:31;7.13;;;3.55;;
16330;SDS011;8275;48.206;16.340;2022-08-19T12:24:03;4.82;;;3.20;;
16330;SDS011;8275;48.206;16.340;2022-08-19T12:26:35;8.07;;;4.68;;
16330;SDS011;8275;48.206;16.340;2022-08-19T12:29:19;3.80;;;3.33;;
16330;SDS011;8275;48.206;16.340;2022-08-19T12:31:49;4.75;;;3.97;;
16330;SDS011;8275;48.206;16.340;2022-08-19T12:34:18;7.18;;;3.65;;
16330;SDS011;8275;48.206;16.340;2022-08-19T12:36:47;4.10;;;3.10;;
16330;SDS011;8275;48.206;16.340;2022-08-19T12:39:16;9.20;;;4.93;;
16330;SDS011;8275;48.206;16.340;2022-08-19T12:41:46;3.33;;;3.03;;
16330;SDS011;8275;48.206;16.340;2022-08-19T12:44:20;5.65;;;3.33;;
16330;SDS011;8275;48.206;16.340;2022-08-19T12:46:54;7.45;;;3.60;;
16330;SDS011;8275;48.206;16.340;2022-08-19T12:49:23;9.25;;;3.30;;
16330;SDS011;8275;48.206;16.340;2022-08-19T12:52:12;4.72;;;3.83;;
16330;SDS011;8275;48.206;16.340;2022-08-19T12:54:48;4.45;;;3.65;;
16330;SDS011;8275;48.206;16.340;2022-08-19T12:57:22;5.00;;;3.67;;
16330;SDS011;8275;48.206;16.340;2022-08-19T12:59:58;8.00;;;5.05;;
16330;SDS011;8275;48.206;16.340;2022-08-19T13:02:30;4.68;;;4.18;;
16330;SDS011;8275;48.206;16.340;2022-08-19T13:05:05;6.80;;;4.00;;
16330;SDS011;8275;48.206;16.340;2022-08-19T13:07:36;6.53;;;2.90;;
16330;SDS011;8275;48.206;16.340;2022-08-19T13:10:06;8.20;;;3.05;;
16330;SDS011;8275;48.206;16.340;2022-08-19T13:12:39;8.18;;;4.63;;
16330;SDS011;8275;48.206;16.340;2022-08-19T13:15:09;5.55;;;2.92;;
16330;SDS011;8275;48.206;16.340;2022-08-19T13:17:40;5.72;;;3.80;;
16330;SDS011;8275;48.206;16.340;2022-08-19T13:20:10;8.00;;;3.90;;
16330;SDS011;8275;48.206;16.340;2022-08-19T13:22:39;4.72;;;3.65;;
16330;SDS011;8275;48.206;16.340;2022-08-19T13:25:08;17.13;;;4.07;;
16330;SDS011;8275;48.206;16.340;2022-08-19T13:27:39;7.80;;;6.43;;
16330;SDS011;8275;48.206;16.340;2022-08-19T13:30:08;11.60;;;3.83;;
16330;SDS011;8275;48.206;16.340;2022-08-19T13:32:57;6.55;;;2.95;;
16330;SDS011;8275;48.206;16.340;2022-08-19T13:35:42;4.68;;;4.25;;
16330;SDS011;8275;48.206;16.340;2022-08-19T13:38:14;8.68;;;4.18;;
16330;SDS011;8275;48.206;16.340;2022-08-19T13:40:47;5.15;;;3.58;;
16330;SDS011;8275;48.206;16.340;2022-08-19T13:43:20;9.50;;;4.32;;
16330;SDS011;8275;48.206;16.340;2022-08-19T13:45:53;2.30;;;2.20;;
16330;SDS011;8275;48.206;16.340;2022-08-19T13:48:23;16.50;;;3.40;;
16330;SDS011;8275;48.206;16.340;2022-08-19T13:50:53;4.47;;;3.60;;
16330;SDS011;8275;48.206;16.340;2022-08-19T13:53:22;5.32;;;4.43;;
16330;SDS011;8275;48.206;16.340;2022-08-19T13:55:51;3.75;;;3.47;;
16330;SDS011;8275;48.206;16.340;2022-08-19T13:58:22;6.70;;;2.90;;
16330;SDS011;8275;48.206;16.340;2022-08-19T14:00:50;6.80;;;3.95;;
16330;SDS011;8275;48.206;16.340;2022-08-19T14:03:19;4.70;;;2.63;;
16330;SDS011;8275;48.206;16.340;2022-08-19T14:05:47;6.25;;;3.80;;
16330;SDS011;8275;48.206;16.340;2022-08-19T14:08:16;5.93;;;3.22;;
16330;SDS011;8275;48.206;16.340;2022-08-19T14:10:45;6.90;;;3.20;;
16330;SDS011;8275;48.206;16.340;2022-08-19T14:13:15;5.05;;;3.15;;
16330;SDS011;8275;48.206;16.340;2022-08-19T14:15:48;3.65;;;2.63;;
16330;SDS011;8275;48.206;16.340;2022-08-19T14:18:18;3.92;;;3.50;;
16330;SDS011;8275;48.206;16.340;2022-08-19T14:20:46;5.00;;;3.60;;
16330;SDS011;8275;48.206;16.340;2022-08-19T14:23:15;8.50;;;4.82;;
16330;SDS011;8275;48.206;16.340;2022-08-19T14:25:43;7.15;;;3.40;;
16330;SDS011;8275;48.206;16.340;2022-08-19T14:28:12;3.30;;;3.00;;
16330;SDS011;8275;48.206;16.340;2022-08-19T14:30:41;6.43;;;3.95;;
16330;SDS011;8275;48.206;16.340;2022-08-19T14:33:12;6.28;;;3.63;;
16330;SDS011;8275;48.206;16.340;2022-08-19T14:35:41;2.75;;;2.38;;
16330;SDS011;8275;48.206;16.340;2022-08-19T14:38:14;4.43;;;3.35;;
16330;SDS011;8275;48.206;16.340;2022-08-19T14:41:05;8.20;;;3.60;;
16330;SDS011;8275;48.206;16.340;2022-08-19T14:43:38;3.38;;;2.90;;
16330;SDS011;8275;48.206;16.340;2022-08-19T14:46:08;5.50;;;2.80;;
16330;SDS011;8275;48.206;16.340;2022-08-19T14:48:43;10.27;;;4.05;;
16330;SDS011;8275;48.206;16.340;2022-08-19T14:51:17;3.67;;;2.72;;
16330;SDS011;8275;48.206;16.340;2022-08-19T14:53:47;6.90;;;2.80;;
16330;SDS011;8275;48.206;16.340;2022-08-19T14:56:18;5.25;;;3.63;;
16330;SDS011;8275;48.206;16.340;2022-08-19T14:58:51;6.60;;;3.00;;
16330;SDS011;8275;48.206;16.340;2022-08-19T15:01:22;3.22;;;2.28;;
16330;SDS011;8275;48.206;16.340;2022-08-19T15:03:52;2.38;;;2.17;;
16330;SDS011;8275;48.206;16.340;2022-08-19T15:06:22;5.25;;;1.98;;
16330;SDS011;8275;48.206;16.340;2022-08-19T15:08:51;2.63;;;2.22;;
16330;SDS011;8275;48.206;16.340;2022-08-19T15:11:21;2.65;;;2.15;;
16330;SDS011;8275;48.206;16.340;2022-08-19T15:13:54;6.43;;;2.78;;
16330;SDS011;8275;48.206;16.340;2022-08-19T15:16:23;2.70;;;1.73;;
16330;SDS011;8275;48.206;16.340;2022-08-19T15:18:56;3.97;;;2.78;;
16330;SDS011;8275;48.206;16.340;2022-08-19T15:21:27;5.00;;;4.13;;
16330;SDS011;8275;48.206;16.340;2022-08-19T15:23:57;9.57;;;3.25;;